Time;durP1;ratioP1;P1;durP2;ratioP2;P2;SDS_P1;SDS_P2;PMS_P1;PMS_P2;Temp;Humidity;BMP_temperature;BMP_pressure;BME280_temperature;BME280_humidity;BME280_pressure;Samples;Min_cycle;Max_cycle;Signal;HPM_P1;HPM_P2
2023/04/10 00:02:09;;;;;;;4.43;2.75;;;;;;;6.73;74.96;94742.59;5093773;28;20198;-76
2023/04/10 00:04:35;;;;;;;5.25;2.78;;;;;;;6.75;75.00;94740.41;5102489;28;20213;-78
2023/04/10 00:07:04;;;;;;;6.57;3.00;;;;;;;6.71;74.98;94740.22;5104936;28;20197;-77
2023/04/10 00:09:31;;;;;;;8.38;2.90;;;;;;;6.74;74.26;94728.06;5100517;28;20205;-78
2023/04/10 00:11:57;;;;;;;4.45;2.63;;;;;;;6.75;73.88;94732.34;5097952;28;20206;-77
2023/04/10 00:14:28;;;;;;;3.30;1.52;;;;;;;6.80;70.38;94721.47;5100000;28;20252;-79
2023/04/10 00:16:55;;;;;;;2.35;1.20;;;;;;;6.83;69.34;94726.28;5093146;28;20839;-80
2023/04/10 00:19:22;;;;;;;3.63;2.63;;;;;;;6.84;69.30;94725.16;5100171;28;20230;-76
2023/04/10 00:21:49;;;;;;;3.45;2.08;;;;;;;6.82;68.93;94719.28;5103918;28;20591;-76
2023/04/10 00:24:17;;;;;;;3.83;2.58;;;;;;;6.81;68.70;94723.06;5078390;28;20832;-77
2023/04/10 00:26:44;;;;;;;3.03;2.55;;;;;;;6.81;69.18;94723.06;5102892;28;20213;-79
2023/04/10 00:29:11;;;;;;;2.67;2.00;;;;;;;6.81;69.71;94716.91;5100604;28;20255;-76
2023/04/10 00:31:37;;;;;;;4.78;2.28;;;;;;;6.77;70.39;94716.69;5104054;28;20255;-76
2023/04/10 00:34:04;;;;;;;3.92;2.47;;;;;;;6.71;70.79;94721.38;5102711;28;20198;-78
2023/04/10 00:36:31;;;;;;;7.10;4.30;;;;;;;6.70;70.79;94717.09;5071051;28;20217;-77
2023/04/10 00:39:00;;;;;;;4.43;2.28;;;;;;;6.65;71.10;94719.09;5094481;28;20652;-77
2023/04/10 00:41:29;;;;;;;4.57;3.00;;;;;;;6.69;71.57;94717.41;5103777;28;20259;-76
2023/04/10 00:43:57;;;;;;;8.85;2.55;;;;;;;6.51;71.99;94718.31;5103916;28;20194;-77
2023/04/10 00:46:23;;;;;;;5.18;2.17;;;;;;;6.55;71.77;94713.94;5096996;28;20751;-78
2023/04/10 00:48:52;;;;;;;6.72;3.00;;;;;;;6.61;71.73;94712.72;5096827;28;20276;-77
2023/04/10 00:51:19;;;;;;;5.25;2.80;;;;;;;6.64;71.50;94712.13;5103500;28;20409;-78
2023/04/10 00:53:46;;;;;;;2.97;2.25;;;;;;;6.65;71.57;94719.91;5104063;28;20250;-77
2023/04/10 00:56:14;;;;;;;6.13;3.22;;;;;;;6.67;71.74;94714.22;5097864;28;20262;-76
2023/04/10 00:58:42;;;;;;;3.45;1.90;;;;;;;6.65;71.71;94716.41;5097645;28;20370;-78
2023/04/10 01:01:10;;;;;;;4.18;2.95;;;;;;;6.60;72.01;94711.91;5102742;28;20202;-76
2023/04/10 01:03:38;;;;;;;7.60;2.60;;;;;;;6.59;71.53;94704.13;5103437;28;20202;-76
2023/04/10 01:06:23;;;;;;;5.03;2.72;;;;;;;6.66;70.79;94709.94;5081374;28;20253;-77
2023/04/10 01:08:57;;;;;;;7.55;3.38;;;;;;;6.71;70.70;94707.13;5101038;28;20210;-77
2023/04/10 01:11:31;;;;;;;5.75;2.72;;;;;;;6.76;70.40;94693.56;5101821;28;20201;-77
2023/04/10 01:14:07;;;;;;;4.90;3.00;;;;;;;6.79;70.02;94687.56;5095544;28;20296;-77
2023/04/10 01:16:38;;;;;;;7.35;3.78;;;;;;;6.68;70.22;94696.97;5094484;28;20774;-77
2023/04/10 01:19:15;;;;;;;9.07;3.38;;;;;;;6.73;70.08;94700.34;5098231;28;20298;-77
2023/04/10 01:21:42;;;;;;;5.15;3.30;;;;;;;6.69;69.75;94698.56;5106850;28;20237;-77
2023/04/10 01:24:21;;;;;;;4.57;2.25;;;;;;;6.60;70.13;94703.03;5089058;28;20210;-79
2023/04/10 01:27:02;;;;;;;2.75;1.77;;;;;;;6.54;70.15;94701.56;5102353;28;20696;-77
2023/04/10 01:29:34;;;;;;;1.92;1.45;;;;;;;6.58;70.51;94697.16;5100904;28;20281;-77
2023/04/10 01:32:03;;;;;;;3.33;1.92;;;;;;;6.58;70.61;94697.97;5100130;27;20213;-77
2023/04/10 01:34:35;;;;;;;4.50;2.72;;;;;;;6.54;70.85;94701.56;5102274;28;20213;-75
2023/04/10 01:37:04;;;;;;;3.90;2.28;;;;;;;6.58;71.18;94694.47;5099622;28;20292;-77
2023/04/10 01:39:36;;;;;;;4.07;1.73;;;;;;;6.51;71.03;94689.50;5095766;28;20278;-77
2023/04/10 01:42:05;;;;;;;2.33;1.77;;;;;;;6.61;71.13;94696.56;5098094;28;20210;-76
2023/04/10 01:44:36;;;;;;;4.60;2.60;;;;;;;6.62;71.43;94693.56;5103122;28;20198;-77
2023/04/10 01:47:07;;;;;;;3.33;2.08;;;;;;;6.60;71.07;94694.97;5101355;28;20320;-77
2023/04/10 01:49:36;;;;;;;3.78;2.20;;;;;;;6.57;70.84;94700.94;5095156;28;20216;-76
2023/04/10 01:52:04;;;;;;;3.47;2.38;;;;;;;6.63;70.41;94689.00;5094874;28;20322;-76
2023/04/10 01:54:32;;;;;;;3.15;2.00;;;;;;;6.70;70.49;94687.47;5082070;28;20282;-76
2023/04/10 01:57:00;;;;;;;2.45;1.95;;;;;;;6.60;70.98;94700.34;5094595;28;20300;-76
2023/04/10 01:59:27;;;;;;;3.75;1.88;;;;;;;6.64;70.90;94693.28;5101188;28;20233;-77
2023/04/10 02:01:57;;;;;;;4.57;2.25;;;;;;;6.62;71.22;94698.97;5102045;28;20197;-76
2023/04/10 02:04:25;;;;;;;4.60;2.15;;;;;;;6.63;71.35;94694.38;5096608;28;20202;-79
2023/04/10 02:07:04;;;;;;;3.10;2.13;;;;;;;6.66;71.59;94699.97;5094669;28;20272;-79
2023/04/10 02:09:41;;;;;;;3.22;2.03;;;;;;;6.67;71.37;94685.41;5098457;28;20217;-76
2023/04/10 02:12:13;;;;;;;3.88;2.33;;;;;;;6.63;71.93;94683.59;5102222;28;20248;-77
2023/04/10 02:14:45;;;;;;;3.63;1.77;;;;;;;6.63;71.77;94686.31;5100936;28;20692;-76
2023/04/10 02:17:14;;;;;;;4.45;2.83;;;;;;;6.68;71.82;94691.59;5102907;28;20242;-76
2023/04/10 02:19:43;;;;;;;4.55;2.17;;;;;;;6.67;71.63;94690.00;5075058;28;20314;-77
2023/04/10 02:22:10;;;;;;;3.75;2.40;;;;;;;6.73;72.20;94673.41;5082519;28;20344;-76
2023/04/10 02:24:37;;;;;;;3.22;2.15;;;;;;;6.75;71.59;94670.44;5095847;28;20198;-76
2023/04/10 02:27:04;;;;;;;2.40;1.80;;;;;;;6.79;71.79;94674.13;5101054;28;20313;-77
2023/04/10 02:29:31;;;;;;;2.95;1.98;;;;;;;6.73;71.75;94662.66;5101130;28;20198;-80
2023/04/10 02:31:58;;;;;;;3.67;2.28;;;;;;;6.90;71.52;94662.03;5099713;28;20630;-76
2023/04/10 02:34:26;;;;;;;2.88;1.60;;;;;;;6.73;71.55;94651.88;5102468;28;20258;-77
2023/04/10 02:36:53;;;;;;;4.07;1.92;;;;;;;6.80;71.95;94659.56;5078704;28;20575;-76
2023/04/10 02:39:20;;;;;;;5.70;2.88;;;;;;;6.68;72.29;94653.91;5097969;28;20708;-77
2023/04/10 02:41:46;;;;;;;5.40;2.83;;;;;;;6.65;72.57;94651.81;5097705;28;20267;-78
2023/04/10 02:44:13;;;;;;;6.18;3.10;;;;;;;6.61;73.01;94650.81;5095590;28;20201;-78
2023/04/10 02:46:40;;;;;;;3.13;1.88;;;;;;;6.60;72.58;94644.63;5098831;28;20202;-76
2023/04/10 02:49:07;;;;;;;5.57;2.78;;;;;;;6.61;73.00;94642.75;5098309;28;20218;-77
2023/04/10 02:51:36;;;;;;;4.82;2.72;;;;;;;6.58;72.97;94637.97;5098691;28;20221;-78
2023/04/10 02:54:03;;;;;;;4.38;3.08;;;;;;;6.53;73.39;94640.78;5095218;28;20205;-78
2023/04/10 02:56:29;;;;;;;5.90;3.03;;;;;;;6.40;74.15;94632.41;5098120;28;20328;-77
2023/04/10 02:58:56;;;;;;;12.48;2.45;;;;;;;6.45;73.78;94634.19;5106109;28;20221;-77
2023/04/10 03:01:23;;;;;;;2.42;2.03;;;;;;;6.47;73.92;94637.38;5097340;28;20255;-77
2023/04/10 03:03:50;;;;;;;4.40;2.60;;;;;;;6.39;74.10;94633.53;5091942;28;20269;-77
2023/04/10 03:06:16;;;;;;;5.93;2.78;;;;;;;6.34;74.42;94644.38;5097424;28;20198;-76
2023/04/10 03:08:44;;;;;;;4.13;2.58;;;;;;;6.29;74.89;94641.78;5101713;28;20267;-77
2023/04/10 03:11:11;;;;;;;6.45;2.97;;;;;;;6.23;75.06;94636.81;5098595;28;20254;-76
2023/04/10 03:13:38;;;;;;;5.25;3.20;;;;;;;6.22;75.23;94644.09;5094682;28;20210;-77
2023/04/10 03:16:05;;;;;;;6.57;3.80;;;;;;;6.24;75.31;94646.47;5096317;28;20226;-77
2023/04/10 03:18:33;;;;;;;6.40;3.50;;;;;;;6.26;75.46;94645.09;5102463;28;20218;-77
2023/04/10 03:21:00;;;;;;;5.57;3.10;;;;;;;6.26;75.57;94642.41;5103249;28;20297;-77
2023/04/10 03:23:27;;;;;;;6.38;3.30;;;;;;;6.16;75.81;94650.66;5093617;28;20191;-76
2023/04/10 03:25:55;;;;;;;3.67;2.38;;;;;;;6.17;75.74;94649.56;5091893;28;20263;-77
2023/04/10 03:28:22;;;;;;;8.07;3.05;;;;;;;6.04;76.17;94639.59;5105486;28;20277;-76
2023/04/10 03:30:50;;;;;;;7.03;2.53;;;;;;;6.00;76.19;94636.72;5091760;28;20669;-77
2023/04/10 03:33:17;;;;;;;9.13;3.33;;;;;;;5.96;76.42;94646.47;5105886;28;20263;-76
2023/04/10 03:35:45;;;;;;;5.75;3.17;;;;;;;5.92;76.71;94641.97;5104697;28;20206;-76
2023/04/10 03:38:11;;;;;;;6.20;2.85;;;;;;;5.87;77.02;94652.81;5098449;28;20640;-76
2023/04/10 03:40:38;;;;;;;4.88;2.67;;;;;;;5.82;77.44;94652.91;5111914;28;20645;-77
2023/04/10 03:43:06;;;;;;;7.55;2.97;;;;;;;5.80;77.71;94650.50;5098499;28;20624;-75
2023/04/10 03:45:33;;;;;;;9.48;4.88;;;;;;;5.81;77.88;94651.28;5111850;28;20197;-77
2023/04/10 03:48:00;;;;;;;6.13;3.42;;;;;;;5.85;78.00;94655.00;5084547;28;20258;-77
2023/04/10 03:50:27;;;;;;;4.60;3.65;;;;;;;5.84;78.30;94662.25;5084319;28;20293;-76
2023/04/10 03:52:53;;;;;;;6.18;3.58;;;;;;;5.91;78.37;94657.31;5103787;28;20210;-77
2023/04/10 03:55:20;;;;;;;5.55;3.78;;;;;;;6.07;77.73;94666.69;5105282;28;20194;-77
2023/04/10 03:57:48;;;;;;;4.07;1.77;;;;;;;6.12;77.62;94657.72;5091072;28;20669;-78
2023/04/10 04:00:17;;;;;;;9.07;4.07;;;;;;;6.12;77.95;94668.50;5076914;28;20234;-75
2023/04/10 04:02:44;;;;;;;3.95;2.72;;;;;;;6.10;78.49;94665.31;5085654;28;20337;-76
2023/04/10 04:05:11;;;;;;;3.40;1.95;;;;;;;6.15;78.56;94667.88;5097170;28;20732;-77
2023/04/10 04:07:37;;;;;;;7.68;3.63;;;;;;;6.16;79.05;94677.53;5103851;28;20191;-77
2023/04/10 04:10:07;;;;;;;3.75;2.72;;;;;;;6.13;79.41;94674.66;5105613;28;20205;-75
2023/04/10 04:12:34;;;;;;;3.58;2.35;;;;;;;6.15;79.49;94683.25;5102404;28;20202;-77
2023/04/10 04:15:01;;;;;;;3.58;2.40;;;;;;;6.17;79.34;94676.44;5104007;28;20197;-76
2023/04/10 04:17:29;;;;;;;3.83;2.42;;;;;;;6.23;79.45;94669.88;5099611;28;20206;-77
2023/04/10 04:19:56;;;;;;;6.20;3.05;;;;;;;6.33;79.47;94675.06;5092267;28;20229;-76
2023/04/10 04:22:23;;;;;;;6.95;4.10;;;;;;;6.40;79.16;94674.66;5070247;28;20260;-78
2023/04/10 04:24:50;;;;;;;8.90;3.28;;;;;;;6.45;79.13;94681.81;5076204;28;20878;-76
2023/04/10 04:27:16;;;;;;;5.97;3.78;;;;;;;6.41;78.95;94679.75;5100373;28;20198;-77
2023/04/10 04:29:43;;;;;;;4.63;3.10;;;;;;;6.40;78.63;94683.53;5102993;28;20264;-75
2023/04/10 04:32:10;;;;;;;5.95;3.83;;;;;;;6.55;78.59;94676.25;5099879;28;20538;-74
2023/04/10 04:34:41;;;;;;;6.03;3.50;;;;;;;6.51;78.09;94680.63;5091018;28;20205;-76
2023/04/10 04:37:08;;;;;;;1.75;1.13;;;;;;;6.66;77.54;94681.13;5080997;28;20195;-75
2023/04/10 04:39:34;;;;;;;10.90;3.75;;;;;;;6.81;76.86;94674.63;5079386;28;20230;-75
2023/04/10 04:42:01;;;;;;;10.23;3.72;;;;;;;7.03;76.30;94684.63;5083337;28;20190;-76
2023/04/10 04:44:28;;;;;;;6.55;3.88;;;;;;;7.29;75.08;94684.84;5082566;28;20244;-76
2023/04/10 04:46:55;;;;;;;6.82;3.88;;;;;;;7.88;73.50;94686.34;5077715;28;20223;-75
2023/04/10 04:49:21;;;;;;;5.15;3.53;;;;;;;8.54;70.97;94677.31;5080700;28;20214;-76
2023/04/10 04:51:49;;;;;;;7.93;4.03;;;;;;;8.93;69.15;94664.84;5080842;28;20662;-75
2023/04/10 04:54:16;;;;;;;13.13;5.60;;;;;;;9.17;67.65;94678.69;5078806;28;20207;-75
2023/04/10 04:56:43;;;;;;;6.32;4.10;;;;;;;9.37;67.07;94679.19;5079324;28;20191;-75
2023/04/10 04:59:10;;;;;;;17.38;6.13;;;;;;;10.18;64.73;94684.63;5082323;28;20219;-75
2023/04/10 05:01:36;;;;;;;8.18;4.60;;;;;;;10.14;64.24;94684.47;5077528;28;20669;-76
2023/04/10 05:04:03;;;;;;;7.10;4.03;;;;;;;9.87;64.83;94688.34;5080811;28;20599;-74
2023/04/10 05:06:30;;;;;;;10.77;5.80;;;;;;;10.39;63.52;94677.41;5081133;28;20214;-76
2023/04/10 05:08:58;;;;;;;9.10;4.13;;;;;;;10.30;63.97;94699.09;5082458;28;20224;-76
2023/04/10 05:11:25;;;;;;;6.22;4.00;;;;;;;10.75;62.59;94681.56;5074329;28;20679;-76
2023/04/10 05:13:52;;;;;;;10.35;4.25;;;;;;;10.73;61.95;94689.22;5080565;28;20281;-74
2023/04/10 05:16:18;;;;;;;10.52;4.72;;;;;;;10.84;62.55;94682.28;5080128;28;20264;-76
2023/04/10 05:18:46;;;;;;;5.80;2.65;;;;;;;10.60;62.39;94691.03;5084399;28;20205;-76
2023/04/10 05:21:13;;;;;;;8.10;4.07;;;;;;;10.50;62.74;94692.19;5085717;28;20201;-76
2023/04/10 05:23:39;;;;;;;13.27;4.60;;;;;;;10.68;63.00;94688.25;5082180;28;20243;-75
2023/04/10 05:26:10;;;;;;;4.78;2.53;;;;;;;10.87;61.99;94676.22;5077858;28;20198;-75
2023/04/10 05:28:36;;;;;;;12.20;3.55;;;;;;;11.51;60.70;94689.47;5086996;28;20603;-75
2023/04/10 05:31:03;;;;;;;6.78;3.90;;;;;;;12.32;58.18;94686.19;5085641;28;20198;-75
2023/04/10 05:33:30;;;;;;;6.32;3.45;;;;;;;12.44;57.12;94676.13;5082990;28;20690;-74
2023/04/10 05:35:57;;;;;;;6.65;3.67;;;;;;;12.64;56.54;94679.88;5081045;28;20187;-74
2023/04/10 05:38:24;;;;;;;7.20;3.60;;;;;;;12.84;55.79;94666.53;5077487;28;20256;-75
2023/04/10 05:40:51;;;;;;;9.00;5.25;;;;;;;13.48;54.34;94670.09;5075118;28;20317;-75
2023/04/10 05:43:20;;;;;;;6.30;4.00;;;;;;;13.94;52.97;94669.81;5090976;28;20735;-75
2023/04/10 05:45:47;;;;;;;5.90;3.97;;;;;;;14.75;51.63;94671.16;5079562;28;20709;-74
2023/04/10 05:48:14;;;;;;;8.05;4.18;;;;;;;14.19;51.57;94677.50;5071295;28;20908;-76
2023/04/10 05:50:40;;;;;;;9.20;3.95;;;;;;;14.18;52.13;94681.38;5081555;28;20207;-76
2023/04/10 05:53:13;;;;;;;9.45;4.03;;;;;;;13.63;52.89;94675.94;5079011;28;20203;-76
2023/04/10 05:55:39;;;;;;;6.55;4.00;;;;;;;13.37;54.32;94679.88;5081979;28;20258;-75
2023/04/10 05:58:13;;;;;;;8.95;5.63;;;;;;;14.05;52.69;94677.13;5077690;28;20226;-75
2023/04/10 06:00:41;;;;;;;8.88;6.22;;;;;;;13.78;52.39;94688.81;5080087;28;20226;-75
2023/04/10 06:03:08;;;;;;;11.10;8.23;;;;;;;12.59;55.57;94688.25;5075132;28;20256;-75
2023/04/10 06:05:35;;;;;;;10.50;6.32;;;;;;;11.96;57.87;94692.31;5082452;28;20202;-75
2023/04/10 06:08:02;;;;;;;9.65;5.63;;;;;;;11.28;60.01;94687.09;5073092;28;20207;-75
2023/04/10 06:10:29;;;;;;;9.15;4.78;;;;;;;11.13;60.17;94697.75;5080918;28;20208;-75
2023/04/10 06:12:56;;;;;;;6.80;4.40;;;;;;;10.65;61.70;94705.19;5080274;28;20226;-76
2023/04/10 06:15:23;;;;;;;8.82;4.35;;;;;;;10.38;62.96;94702.91;5084708;28;20230;-76
2023/04/10 06:17:52;;;;;;;8.05;4.60;;;;;;;9.97;63.57;94698.84;5076795;28;20191;-75
2023/04/10 06:20:19;;;;;;;7.18;3.88;;;;;;;9.37;65.99;94692.69;5076805;28;20237;-75
2023/04/10 06:22:46;;;;;;;12.70;4.72;;;;;;;9.64;66.01;94697.78;5080051;28;20191;-74
2023/04/10 06:25:13;;;;;;;6.32;4.28;;;;;;;9.71;65.59;94694.56;5080243;28;20247;-76
2023/04/10 06:27:40;;;;;;;10.52;6.70;;;;;;;9.81;65.31;94702.38;5080216;28;20202;-75
2023/04/10 06:30:11;;;;;;;6.70;4.28;;;;;;;9.32;66.75;94709.06;5083728;28;20197;-74
2023/04/10 06:32:38;;;;;;;7.90;4.47;;;;;;;9.39;67.14;94704.00;5080371;28;20787;-74
2023/04/10 06:35:07;;;;;;;8.55;4.45;;;;;;;9.59;66.32;94695.22;5089247;28;20478;-76
2023/04/10 06:37:33;;;;;;;9.10;5.10;;;;;;;9.79;65.87;94689.16;5092374;28;20198;-75
2023/04/10 06:40:03;;;;;;;9.38;5.15;;;;;;;9.69;65.71;94694.91;5087211;28;20292;-74
2023/04/10 06:42:30;;;;;;;10.25;4.70;;;;;;;9.53;67.16;94702.72;5099051;28;20224;-75
2023/04/10 06:44:57;;;;;;;11.63;5.63;;;;;;;9.86;65.91;94700.28;5089974;28;20628;-74
2023/04/10 06:47:24;;;;;;;8.65;4.68;;;;;;;9.71;65.93;94700.78;5087604;28;20190;-75
2023/04/10 06:49:50;;;;;;;13.32;6.55;;;;;;;9.44;66.97;94707.31;5087680;28;20665;-75
2023/04/10 06:52:19;;;;;;;19.85;5.43;;;;;;;9.67;66.44;94702.56;5089345;28;20199;-75
2023/04/10 06:54:46;;;;;;;9.57;5.15;;;;;;;9.63;66.21;94707.81;5100234;28;20201;-74
2023/04/10 06:57:13;;;;;;;8.48;4.85;;;;;;;9.71;65.80;94703.50;5097286;28;20197;-74
2023/04/10 06:59:40;;;;;;;6.35;4.15;;;;;;;9.48;66.20;94705.56;5111487;28;20225;-75
2023/04/10 07:02:07;;;;;;;13.88;6.93;;;;;;;9.73;66.74;94705.88;5097863;28;20197;-73
2023/04/10 07:04:34;;;;;;;10.13;5.10;;;;;;;9.49;66.53;94717.19;5101691;28;20202;-75
2023/04/10 07:07:01;;;;;;;12.18;6.20;;;;;;;9.58;66.72;94716.06;5094225;28;20250;-74
2023/04/10 07:09:29;;;;;;;8.30;5.47;;;;;;;9.42;66.57;94703.38;5100261;28;20206;-73
2023/04/10 07:11:56;;;;;;;8.38;4.43;;;;;;;9.30;67.01;94703.19;5081171;28;20214;-74
2023/04/10 07:14:25;;;;;;;10.50;5.35;;;;;;;9.52;66.81;94711.16;5100965;28;20206;-75
2023/04/10 07:16:52;;;;;;;8.25;4.65;;;;;;;9.82;65.57;94710.19;5104269;28;20234;-76
2023/04/10 07:19:22;;;;;;;7.35;4.57;;;;;;;9.64;66.29;94716.72;5102617;28;20236;-75
2023/04/10 07:21:49;;;;;;;10.00;5.60;;;;;;;9.37;66.58;94708.91;5106585;28;20233;-75
2023/04/10 07:24:16;;;;;;;12.50;6.53;;;;;;;9.30;67.06;94713.97;5091186;28;20222;-76
2023/04/10 07:26:45;;;;;;;13.27;8.32;;;;;;;9.30;67.05;94713.97;5096414;28;20201;-75
2023/04/10 07:29:13;;;;;;;7.75;4.57;;;;;;;9.23;67.20;94712.56;5098097;28;20575;-74
2023/04/10 07:31:40;;;;;;;10.77;5.43;;;;;;;9.17;67.77;94716.53;5084490;28;20214;-75
2023/04/10 07:34:07;;;;;;;7.47;4.45;;;;;;;9.38;66.79;94719.41;5086060;28;20198;-73
2023/04/10 07:36:34;;;;;;;9.18;4.95;;;;;;;9.19;67.55;94716.22;5102156;28;20268;-76
2023/04/10 07:39:01;;;;;;;11.98;5.65;;;;;;;9.56;66.71;94718.31;5084592;28;20194;-75
2023/04/10 07:41:27;;;;;;;10.57;5.82;;;;;;;9.77;66.30;94715.75;5088214;28;20644;-75
2023/04/10 07:43:55;;;;;;;11.10;6.57;;;;;;;9.75;66.27;94723.38;5103690;28;20262;-74
2023/04/10 07:46:22;;;;;;;10.30;5.70;;;;;;;10.31;64.81;94716.16;5080898;28;20226;-74
2023/04/10 07:48:49;;;;;;;8.63;4.15;;;;;;;10.33;64.14;94719.31;5126524;22;20231;-73
2023/04/10 07:51:25;;;;;;;10.20;5.60;;;;;;;10.44;64.18;94698.88;5090783;22;20243;-94
2023/04/10 07:54:00;;;;;;;11.13;5.15;;;;;;;10.21;64.52;94727.31;5035984;28;20173;-92
2023/04/10 07:59:23;;;;;;;12.90;5.00;;;;;;;10.62;63.75;94711.25;5072891;22;20204;-73
2023/04/10 08:01:50;;;;;;;10.75;5.43;;;;;;;10.72;62.88;94703.88;5017761;28;21105;-72
2023/04/10 08:04:20;;;;;;;10.32;4.82;;;;;;;10.47;62.32;94675.78;5054593;22;20227;-93
2023/04/10 08:06:49;;;;;;;13.10;7.30;;;;;;;10.37;63.06;94714.84;5054392;22;20254;-71
2023/04/10 08:09:16;;;;;;;9.98;5.10;;;;;;;9.93;64.13;94718.75;5028176;28;20216;-70
2023/04/10 08:11:43;;;;;;;7.88;4.38;;;;;;;9.87;64.98;94717.31;5042833;28;20295;-73
2023/04/10 08:14:12;;;;;;;15.70;9.32;;;;;;;10.05;64.77;94712.69;5037805;28;20729;-73
2023/04/10 08:16:40;;;;;;;13.35;6.40;;;;;;;10.16;64.71;94697.69;5032918;28;20212;-72
2023/04/10 08:19:07;;;;;;;10.68;4.32;;;;;;;9.77;64.86;94726.56;5039070;28;20321;-72
2023/04/10 08:21:34;;;;;;;6.47;4.07;;;;;;;9.80;65.30;94728.63;5036001;28;20231;-72
2023/04/10 08:24:02;;;;;;;14.00;6.07;;;;;;;9.79;65.58;94716.22;5038913;28;20757;-72
2023/04/10 08:26:30;;;;;;;6.40;3.47;;;;;;;10.42;63.86;94706.53;5042581;28;20724;-72
2023/04/10 08:28:58;;;;;;;8.65;4.43;;;;;;;10.36;63.49;94707.84;5029315;28;20222;-73
2023/04/10 08:31:26;;;;;;;9.23;6.05;;;;;;;10.25;64.08;94712.81;5042690;28;20323;-72
2023/04/10 08:33:54;;;;;;;9.00;5.38;;;;;;;10.60;63.65;94708.06;5039363;28;20196;-72
2023/04/10 08:36:21;;;;;;;4.00;2.20;;;;;;;10.35;64.00;94722.50;5035652;28;20284;-72
2023/04/10 08:38:48;;;;;;;8.43;4.22;;;;;;;10.36;63.36;94704.34;5035076;28;20738;-72
2023/04/10 08:41:17;;;;;;;9.02;5.35;;;;;;;10.07;64.69;94715.88;5026432;28;20392;-72
2023/04/10 08:43:44;;;;;;;8.50;3.92;;;;;;;10.26;64.10;94717.09;5036609;28;20204;-72
2023/04/10 08:46:11;;;;;;;11.38;6.40;;;;;;;10.09;64.52;94714.44;5029943;28;20287;-71
2023/04/10 08:48:45;;;;;;;15.15;6.75;;;;;;;10.44;64.71;94708.94;5034423;28;20212;-72
2023/04/10 08:51:17;;;;;;;12.35;6.88;;;;;;;10.97;63.27;94705.66;5019655;28;20278;-72
2023/04/10 08:53:45;;;;;;;10.02;5.85;;;;;;;10.44;62.20;94681.84;5041936;28;20204;-71
2023/04/10 08:56:14;;;;;;;9.45;4.15;;;;;;;10.36;62.21;94669.94;5033646;28;20207;-71
2023/04/10 08:58:41;;;;;;;7.38;4.32;;;;;;;10.38;62.93;94702.91;5030045;28;20663;-72
2023/04/10 09:01:10;;;;;;;11.10;5.78;;;;;;;10.66;63.31;94704.03;5038066;28;20423;-72
2023/04/10 09:03:37;;;;;;;5.95;3.15;;;;;;;10.07;63.20;94715.88;5031942;28;20212;-70
2023/04/10 09:06:05;;;;;;;5.70;4.18;;;;;;;10.11;64.85;94706.00;5030174;28;20697;-73
2023/04/10 09:08:34;;;;;;;4.95;3.05;;;;;;;10.28;63.14;94695.13;5041265;28;20197;-72
2023/04/10 09:11:01;;;;;;;6.85;3.70;;;;;;;10.63;62.49;94696.59;5029553;28;20292;-73
2023/04/10 09:13:39;;;;;;;5.65;3.22;;;;;;;10.57;62.64;94684.34;5015313;28;20203;-73
2023/04/10 09:16:07;;;;;;;7.15;4.05;;;;;;;10.32;61.82;94696.06;5039583;28;20883;-73
2023/04/10 09:18:45;;;;;;;9.13;4.00;;;;;;;10.56;61.84;94688.16;5029438;28;20617;-73
2023/04/10 09:21:14;;;;;;;7.05;4.32;;;;;;;10.60;60.77;94694.53;5030970;28;20310;-72
2023/04/10 09:23:44;;;;;;;12.15;5.32;;;;;;;10.62;61.45;94684.16;5032972;28;20292;-72
2023/04/10 09:26:25;;;;;;;5.72;3.65;;;;;;;10.22;62.01;94707.25;5039877;28;20200;-72
2023/04/10 09:29:01;;;;;;;6.47;4.10;;;;;;;10.29;62.81;94699.41;5027547;28;20215;-74
2023/04/10 09:31:30;;;;;;;9.68;4.43;;;;;;;10.03;64.32;94690.56;5041564;28;20216;-72
2023/04/10 09:34:13;;;;;;;8.55;5.28;;;;;;;10.57;63.84;94681.63;5038551;28;20227;-72
2023/04/10 09:36:43;;;;;;;4.95;2.92;;;;;;;10.72;61.69;94676.78;5013768;28;20196;-72
2023/04/10 09:39:12;;;;;;;11.43;7.57;;;;;;;10.66;62.39;94676.94;5031881;28;20313;-73
2023/04/10 09:41:50;;;;;;;8.55;4.88;;;;;;;10.24;63.86;94667.13;5040791;28;20223;-72
2023/04/10 09:44:19;;;;;;;9.77;5.13;;;;;;;10.41;63.06;94672.47;5043276;28;20279;-73
2023/04/10 09:46:48;;;;;;;5.50;3.75;;;;;;;10.47;64.52;94659.53;5030696;28;20259;-73
2023/04/10 09:49:15;;;;;;;6.18;3.53;;;;;;;10.50;63.75;94681.34;5030483;28;20315;-76
2023/04/10 09:51:42;;;;;;;6.93;4.07;;;;;;;9.83;65.26;94687.44;5027700;28;20240;-72
2023/04/10 09:54:11;;;;;;;9.10;4.15;;;;;;;9.97;65.34;94674.50;5028983;28;20286;-72
2023/04/10 09:56:39;;;;;;;8.20;4.55;;;;;;;9.94;66.23;94671.63;5027314;28;20304;-72
2023/04/10 09:59:08;;;;;;;13.05;8.88;;;;;;;10.41;65.37;94661.63;5031818;28;20210;-72
2023/04/10 10:01:37;;;;;;;8.48;4.35;;;;;;;10.73;63.38;94670.25;5044705;28;20292;-72
2023/04/10 10:04:05;;;;;;;7.20;3.17;;;;;;;10.66;61.81;94666.13;5027466;28;20327;-72
2023/04/10 10:06:33;;;;;;;9.07;4.70;;;;;;;10.77;62.56;94668.47;5027222;28;20236;-72
2023/04/10 10:09:03;;;;;;;5.00;3.47;;;;;;;11.16;60.67;94662.63;5032902;28;20219;-73
2023/04/10 10:11:34;;;;;;;11.43;8.00;;;;;;;11.25;59.36;94657.94;5033860;28;20220;-73
2023/04/10 10:14:03;;;;;;;11.25;7.55;;;;;;;11.15;59.60;94658.34;5024119;28;20634;-73
2023/04/10 10:16:35;;;;;;;10.77;6.90;;;;;;;11.14;58.42;94662.16;5040177;28;20207;-73
2023/04/10 10:19:09;;;;;;;8.57;4.65;;;;;;;11.03;58.92;94656.34;5035123;28;20222;-73
2023/04/10 10:21:38;;;;;;;5.07;3.75;;;;;;;10.75;59.48;94654.47;5033630;28;20238;-72
2023/04/10 10:24:08;;;;;;;8.88;4.47;;;;;;;10.72;59.21;94655.09;5028743;28;20200;-72
2023/04/10 10:26:39;;;;;;;8.90;4.75;;;;;;;11.02;58.75;94643.13;5038404;28;20207;-72
2023/04/10 10:29:09;;;;;;;8.32;4.22;;;;;;;11.46;57.85;94640.88;5025538;28;20208;-71
2023/04/10 10:31:37;;;;;;;5.07;3.20;;;;;;;11.39;55.65;94620.50;5036349;28;20218;-74
2023/04/10 10:34:06;;;;;;;5.20;3.55;;;;;;;11.67;55.61;94630.78;5034147;28;20226;-72
2023/04/10 10:36:33;;;;;;;8.45;6.47;;;;;;;11.86;54.92;94628.38;5039587;28;20232;-72
2023/04/10 10:39:17;;;;;;;10.52;6.35;;;;;;;11.86;55.30;94627.59;5029997;28;20264;-72
2023/04/10 10:41:53;;;;;;;10.50;6.20;;;;;;;11.58;55.33;94622.72;5030264;28;20231;-73
2023/04/10 10:44:29;;;;;;;7.75;4.78;;;;;;;11.61;55.94;94615.84;5036398;28;20229;-72
2023/04/10 10:47:06;;;;;;;6.45;4.28;;;;;;;11.63;55.32;94613.56;5024013;28;20204;-72
2023/04/10 10:49:53;;;;;;;5.47;3.95;;;;;;;11.82;55.46;94611.19;5031142;28;20206;-72
2023/04/10 10:52:42;;;;;;;8.88;2.80;;;;;;;11.62;55.73;94601.13;5039325;28;20196;-72
2023/04/10 10:55:36;;;;;;;8.85;4.80;;;;;;;11.75;55.75;94603.56;5034614;28;20265;-72
2023/04/10 10:58:10;;;;;;;11.02;7.20;;;;;;;12.00;54.53;94606.38;5022740;28;20235;-72
2023/04/10 11:01:06;;;;;;;9.98;7.10;;;;;;;12.17;54.50;94600.72;5039952;28;20204;-73
2023/04/10 11:03:32;;;;;;;7.03;4.88;;;;;;;12.28;54.04;94568.50;5027242;28;20227;-72
2023/04/10 11:06:01;;;;;;;5.70;3.63;;;;;;;12.93;53.61;94561.97;5028604;28;20232;-72
2023/04/10 11:08:45;;;;;;;3.47;2.67;;;;;;;13.97;50.19;94577.28;5036338;28;20203;-73
2023/04/10 11:11:15;;;;;;;8.13;4.95;;;;;;;13.20;50.80;94548.75;5037341;28;20207;-73
2023/04/10 11:14:16;;;;;;;7.78;4.53;;;;;;;13.22;51.56;94576.41;5017833;28;20262;-72
2023/04/10 11:16:45;;;;;;;4.88;3.15;;;;;;;12.50;53.14;94581.59;5024637;28;20212;-76
2023/04/10 11:19:12;;;;;;;4.47;3.33;;;;;;;12.05;54.19;94581.69;5035196;28;20630;-73
2023/04/10 11:22:02;;;;;;;6.50;3.97;;;;;;;11.98;55.04;94570.63;5027829;28;20259;-72
2023/04/10 11:24:29;;;;;;;6.68;3.38;;;;;;;12.03;53.91;94554.88;5019655;28;20232;-73
2023/04/10 11:26:57;;;;;;;7.47;4.00;;;;;;;12.15;52.54;94553.31;5033006;28;20212;-72
2023/04/10 11:29:34;;;;;;;10.35;4.38;;;;;;;11.57;53.55;94560.66;5019618;28;20275;-74
2023/04/10 11:32:04;;;;;;;7.28;4.78;;;;;;;11.37;55.07;94565.00;5025249;28;20623;-73
2023/04/10 11:34:32;;;;;;;7.78;5.20;;;;;;;11.10;57.60;94579.91;5039883;28;20193;-74
2023/04/10 11:36:59;;;;;;;4.03;2.50;;;;;;;10.73;60.15;94575.41;5036823;28;20239;-74
2023/04/10 11:39:27;;;;;;;10.65;6.72;;;;;;;10.67;62.58;94578.31;5029815;28;20619;-75
2023/04/10 11:41:56;;;;;;;7.40;4.45;;;;;;;10.80;60.48;94578.38;5042728;28;20243;-76
2023/04/10 11:44:31;;;;;;;4.22;2.85;;;;;;;10.90;58.53;94573.38;5036281;28;20242;-75
2023/04/10 11:46:59;;;;;;;4.18;3.08;;;;;;;10.99;58.07;94563.25;5038852;28;20282;-72
2023/04/10 11:49:27;;;;;;;4.55;3.08;;;;;;;11.27;57.52;94563.50;5033429;28;20571;-72